Time;durP1;ratioP1;P1;durP2;ratioP2;P2;SDS_P1;SDS_P2;PMS_P1;PMS_P2;Temp;Humidity;BMP_temperature;BMP_pressure;BME280_temperature;BME280_humidity;BME280_pressure;Samples;Min_cycle;Max_cycle;Signal;HPM_P1;HPM_P2
2022/05/26 00:02:05;;;;;;;6.40;2.70;;;14.10;99.90;;;;;;5067674;28;20415;-37
2022/05/26 00:04:32;;;;;;;5.95;4.22;;;14.10;99.90;;;;;;5064852;28;20044;-36
2022/05/26 00:06:59;;;;;;;7.30;4.40;;;14.10;99.90;;;;;;5066193;28;20129;-36
2022/05/26 00:09:26;;;;;;;8.80;3.88;;;14.10;99.90;;;;;;5071184;28;20044;-36
2022/05/26 00:11:53;;;;;;;8.95;4.47;;;14.20;99.90;;;;;;5060501;28;20401;-35
2022/05/26 00:14:19;;;;;;;8.43;5.40;;;14.20;99.90;;;;;;5057753;28;20049;-35
2022/05/26 00:16:46;;;;;;;15.48;6.40;;;14.20;99.90;;;;;;5071127;28;20055;-35
2022/05/26 00:19:16;;;;;;;12.40;6.53;;;14.30;99.90;;;;;;5059431;28;20056;-35
2022/05/26 00:21:42;;;;;;;13.10;6.57;;;14.20;99.90;;;;;;5057942;28;20041;-34
2022/05/26 00:24:09;;;;;;;15.00;7.93;;;14.30;99.90;;;;;;5074282;28;20049;-34
2022/05/26 00:26:36;;;;;;;13.10;7.15;;;14.20;99.90;;;;;;5057098;28;20063;-35
2022/05/26 00:29:03;;;;;;;17.08;8.38;;;14.30;99.90;;;;;;5056307;28;20041;-35
2022/05/26 00:31:30;;;;;;;15.10;8.57;;;14.20;99.90;;;;;;5062519;28;20149;-34
2022/05/26 00:33:57;;;;;;;19.60;11.10;;;14.30;99.90;;;;;;5057930;28;20076;-35
2022/05/26 00:36:38;;;;;;;17.17;9.38;;;14.30;99.90;;;;;;5055477;28;20060;-36
2022/05/26 00:39:06;;;;;;;16.63;11.10;;;14.30;99.90;;;;;;5060258;28;20057;-34
2022/05/26 00:41:33;;;;;;;14.77;8.18;;;14.30;99.90;;;;;;5055924;28;20049;-35
2022/05/26 00:44:00;;;;;;;16.85;10.13;;;14.30;99.90;;;;;;5066504;28;20395;-35
2022/05/26 00:46:30;;;;;;;22.35;11.30;;;14.30;99.90;;;;;;5074998;28;20048;-35
2022/05/26 00:48:58;;;;;;;19.92;10.07;;;14.40;99.90;;;;;;5075838;28;20048;-35
2022/05/26 00:51:28;;;;;;;26.45;13.57;;;14.40;99.90;;;;;;5075838;28;20420;-34
2022/05/26 00:53:56;;;;;;;23.83;10.13;;;14.40;99.90;;;;;;5074527;28;20475;-35
2022/05/26 00:56:25;;;;;;;14.77;9.23;;;14.40;99.90;;;;;;5074666;28;20485;-35
2022/05/26 00:58:53;;;;;;;17.58;9.43;;;14.40;99.90;;;;;;5057057;28;20049;-35
2022/05/26 01:01:20;;;;;;;29.42;12.30;;;14.40;99.90;;;;;;5073526;28;20072;-35
2022/05/26 01:03:48;;;;;;;30.95;12.02;;;14.50;99.90;;;;;;5062452;28;20049;-35
2022/05/26 01:06:17;;;;;;;25.35;12.10;;;14.40;99.90;;;;;;5068512;28;20044;-36
2022/05/26 01:08:47;;;;;;;30.75;11.13;;;14.50;99.90;;;;;;5065115;28;20044;-35
2022/05/26 01:11:14;;;;;;;31.23;12.65;;;14.50;99.90;;;;;;5071900;28;20060;-35
2022/05/26 01:13:43;;;;;;;22.48;9.95;;;14.50;99.90;;;;;;5069418;28;20473;-35
2022/05/26 01:16:13;;;;;;;36.20;13.55;;;14.50;99.90;;;;;;5057481;28;20512;-35
2022/05/26 01:18:43;;;;;;;26.75;12.70;;;14.50;99.90;;;;;;5055268;28;20047;-35
2022/05/26 01:21:12;;;;;;;20.00;9.50;;;14.60;99.90;;;;;;5058030;28;20432;-35
2022/05/26 01:24:24;;;;;;;34.45;11.77;;;14.50;99.90;;;;;;5057420;28;20059;-35
2022/05/26 01:27:22;;;;;;;32.78;13.30;;;14.60;99.90;;;;;;5065185;28;20063;-35
2022/05/26 01:30:06;;;;;;;30.58;10.88;;;14.60;99.90;;;;;;5061142;28;20044;-35
2022/05/26 01:32:41;;;;;;;24.50;9.57;;;14.60;99.90;;;;;;5071067;28;20055;-35
2022/05/26 01:35:10;;;;;;;32.92;11.13;;;14.60;99.90;;;;;;5062385;28;20044;-35
2022/05/26 01:37:41;;;;;;;31.83;10.70;;;14.60;99.90;;;;;;5058294;28;20059;-35
2022/05/26 01:40:11;;;;;;;30.38;11.07;;;14.60;99.90;;;;;;5055853;28;20077;-34
2022/05/26 01:42:39;;;;;;;31.38;10.95;;;14.60;99.90;;;;;;5056306;28;20051;-35
2022/05/26 01:45:09;;;;;;;32.20;10.20;;;14.70;99.90;;;;;;5073844;28;20052;-35
2022/05/26 01:47:42;;;;;;;32.22;10.52;;;14.60;99.90;;;;;;5056457;28;20405;-35
2022/05/26 01:50:15;;;;;;;26.00;8.60;;;14.70;99.90;;;;;;5069176;28;20054;-35
2022/05/26 01:52:43;;;;;;;35.65;10.50;;;14.60;99.90;;;;;;5056504;28;20053;-35
2022/05/26 01:55:11;;;;;;;26.90;9.38;;;14.60;99.90;;;;;;5053511;28;20053;-34
2022/05/26 01:57:43;;;;;;;35.40;10.18;;;14.70;99.90;;;;;;5070035;28;20511;-35
2022/05/26 02:00:11;;;;;;;34.92;11.00;;;14.60;99.90;;;;;;5062191;28;20048;-35
2022/05/26 02:02:41;;;;;;;38.22;10.10;;;14.60;99.90;;;;;;5069128;28;20056;-35
2022/05/26 02:05:10;;;;;;;33.85;9.50;;;14.60;99.90;;;;;;5054511;28;20412;-35
2022/05/26 02:07:38;;;;;;;41.35;10.98;;;14.60;99.90;;;;;;5063625;28;20480;-35
2022/05/26 02:10:07;;;;;;;44.22;9.88;;;14.60;99.90;;;;;;5060982;28;20044;-35
2022/05/26 02:12:36;;;;;;;40.10;10.60;;;14.60;99.90;;;;;;5063405;28;20143;-35
2022/05/26 02:15:05;;;;;;;53.45;12.60;;;14.60;99.90;;;;;;5055866;28;20497;-34
2022/05/26 02:17:33;;;;;;;43.42;11.57;;;14.60;99.90;;;;;;5058973;28;20052;-35
2022/05/26 02:20:05;;;;;;;40.65;10.15;;;14.50;99.90;;;;;;5058273;28;20131;-34
2022/05/26 02:22:33;;;;;;;59.22;12.27;;;14.60;99.90;;;;;;5053200;28;20059;-35
2022/05/26 02:25:01;;;;;;;38.08;9.30;;;14.60;99.90;;;;;;5066027;28;20052;-35
2022/05/26 02:27:28;;;;;;;42.85;9.15;;;14.60;99.90;;;;;;5054514;28;20055;-35
2022/05/26 02:29:56;;;;;;;53.17;10.40;;;14.60;99.90;;;;;;5069236;28;20128;-35
2022/05/26 02:32:32;;;;;;;48.03;9.70;;;14.60;99.90;;;;;;5058353;28;20049;-35
2022/05/26 02:34:59;;;;;;;37.83;8.77;;;14.60;99.90;;;;;;5056821;28;20053;-35
2022/05/26 02:37:27;;;;;;;35.58;9.27;;;14.60;99.90;;;;;;5071135;28;20059;-35
2022/05/26 02:39:54;;;;;;;48.70;9.88;;;14.60;99.90;;;;;;5060582;28;20048;-35
2022/05/26 02:42:20;;;;;;;40.95;9.15;;;14.60;99.90;;;;;;5062533;28;20396;-35
2022/05/26 02:44:47;;;;;;;45.70;10.98;;;14.60;99.90;;;;;;5073365;28;20143;-35
2022/05/26 02:47:36;;;;;;;44.13;10.57;;;14.60;99.90;;;;;;5065491;28;20048;-35
2022/05/26 02:50:08;;;;;;;39.63;8.77;;;14.60;99.90;;;;;;5053013;28;20053;-35
2022/05/26 02:52:40;;;;;;;54.72;10.20;;;14.60;99.90;;;;;;5052579;28;20045;-35
2022/05/26 02:55:13;;;;;;;37.17;9.25;;;14.60;99.90;;;;;;5058561;28;20059;-35
2022/05/26 02:57:43;;;;;;;45.90;9.43;;;14.60;99.90;;;;;;5070198;28;20139;-34
2022/05/26 03:00:12;;;;;;;43.47;9.50;;;14.60;99.90;;;;;;5073144;28;20097;-34
2022/05/26 03:02:41;;;;;;;45.17;8.63;;;14.60;99.90;;;;;;5070605;28;20060;-34
2022/05/26 03:05:10;;;;;;;45.90;9.15;;;14.60;99.90;;;;;;5053637;28;20493;-35
2022/05/26 03:07:39;;;;;;;42.90;8.57;;;14.60;99.90;;;;;;5072417;28;20056;-35
2022/05/26 03:10:07;;;;;;;39.60;9.38;;;14.60;99.90;;;;;;5067919;28;20477;-35
2022/05/26 03:12:35;;;;;;;50.90;9.60;;;14.60;99.90;;;;;;5061514;28;20434;-35
2022/05/26 03:15:02;;;;;;;42.67;9.60;;;14.60;99.90;;;;;;5061521;28;20127;-35
2022/05/26 03:17:29;;;;;;;35.55;8.35;;;14.50;99.90;;;;;;5058815;28;20375;-35
2022/05/26 03:19:56;;;;;;;40.80;7.53;;;14.50;99.90;;;;;;5057335;28;20047;-35
2022/05/26 03:22:23;;;;;;;36.70;7.18;;;14.50;99.90;;;;;;5054926;28;20507;-34
2022/05/26 03:24:51;;;;;;;45.55;8.23;;;14.50;99.90;;;;;;5053136;28;20405;-35
2022/05/26 03:27:18;;;;;;;46.00;9.27;;;14.50;99.90;;;;;;5071744;28;20059;-35
2022/05/26 03:29:45;;;;;;;33.55;7.90;;;14.50;99.90;;;;;;5059652;28;20329;-34
2022/05/26 03:32:11;;;;;;;40.67;8.27;;;14.50;99.90;;;;;;5064840;28;20053;-36
2022/05/26 03:42:54;;;;;;;37.28;7.82;;;14.40;99.90;;;;;;5056708;28;20053;-35
2022/05/26 03:45:23;;;;;;;45.58;7.18;;;14.40;99.90;;;;;;5071815;28;20063;-35
2022/05/26 03:47:50;;;;;;;37.35;7.38;;;14.40;99.90;;;;;;5072297;28;20049;-34
2022/05/26 03:50:17;;;;;;;36.38;6.65;;;14.40;99.90;;;;;;5071338;28;20214;-34
2022/05/26 03:52:43;;;;;;;39.67;7.38;;;14.40;99.90;;;;;;5059427;28;20053;-34
2022/05/26 03:55:12;;;;;;;32.83;6.50;;;14.40;99.90;;;;;;5052735;28;20053;-34
2022/05/26 03:57:38;;;;;;;34.85;7.10;;;14.40;99.90;;;;;;5052882;28;20076;-35
2022/05/26 04:00:06;;;;;;;39.40;7.93;;;14.40;99.90;;;;;;5070743;28;20051;-35
2022/05/26 04:02:35;;;;;;;40.10;8.10;;;14.40;99.90;;;;;;5056414;28;20049;-35
2022/05/26 04:05:01;;;;;;;32.88;6.18;;;14.40;99.90;;;;;;5052258;28;20054;-35
2022/05/26 04:07:28;;;;;;;26.30;5.90;;;14.40;99.90;;;;;;5057556;28;20407;-35
2022/05/26 04:09:55;;;;;;;27.10;6.03;;;14.40;99.90;;;;;;5069582;28;20138;-34
2022/05/26 04:12:23;;;;;;;35.20;6.70;;;14.40;99.90;;;;;;5053752;28;20050;-34
2022/05/26 04:14:49;;;;;;;34.17;6.25;;;14.40;99.90;;;;;;5070313;28;20102;-34
2022/05/26 04:17:16;;;;;;;37.47;6.60;;;14.40;99.90;;;;;;5071273;28;20139;-34
2022/05/26 04:19:43;;;;;;;27.58;5.72;;;14.40;99.90;;;;;;5060831;28;20049;-34
2022/05/26 04:22:17;;;;;;;29.83;6.05;;;14.30;99.90;;;;;;5065939;28;20056;-36
2022/05/26 04:24:44;;;;;;;31.90;5.15;;;14.30;99.90;;;;;;5057520;28;20077;-35
2022/05/26 04:27:11;;;;;;;25.55;5.50;;;14.30;99.90;;;;;;5055270;28;20041;-35
2022/05/26 04:29:39;;;;;;;29.38;5.28;;;14.30;99.90;;;;;;5060857;28;20327;-35
2022/05/26 04:32:06;;;;;;;29.33;5.13;;;14.30;99.90;;;;;;5070197;28;20048;-35
2022/05/26 04:34:33;;;;;;;20.90;4.40;;;14.30;99.90;;;;;;5052304;28;20051;-36
2022/05/26 04:37:00;;;;;;;18.80;4.25;;;14.30;99.90;;;;;;5052155;28;20049;-35
2022/05/26 04:39:27;;;;;;;20.98;4.40;;;14.30;99.90;;;;;;5067559;28;20053;-35
2022/05/26 04:41:53;;;;;;;20.52;4.25;;;14.30;99.90;;;;;;5054265;28;20076;-35
2022/05/26 04:44:20;;;;;;;17.05;3.78;;;14.30;99.90;;;;;;5067856;28;20072;-34
2022/05/26 04:46:48;;;;;;;19.27;4.00;;;14.20;99.90;;;;;;5069621;28;20052;-35
2022/05/26 04:49:15;;;;;;;22.48;4.03;;;14.20;99.90;;;;;;5061415;28;20151;-35
2022/05/26 04:51:41;;;;;;;23.25;3.38;;;14.20;99.90;;;;;;5063623;28;20044;-34
2022/05/26 04:54:08;;;;;;;17.10;3.13;;;14.20;99.90;;;;;;5057247;28;20401;-34
2022/05/26 04:56:35;;;;;;;15.57;3.30;;;14.10;99.90;;;;;;5066650;28;20057;-35
2022/05/26 04:59:02;;;;;;;16.13;3.30;;;14.10;99.90;;;;;;5052555;28;20071;-35
2022/05/26 05:01:28;;;;;;;20.55;3.55;;;14.10;99.90;;;;;;5057690;28;20501;-34
2022/05/26 05:03:56;;;;;;;18.52;3.17;;;14.10;99.90;;;;;;5063980;28;20036;-35
2022/05/26 05:06:23;;;;;;;16.13;3.13;;;14.10;99.90;;;;;;5073593;28;20052;-35
2022/05/26 05:08:50;;;;;;;18.67;2.95;;;14.10;99.90;;;;;;5065684;28;20098;-35
2022/05/26 05:11:17;;;;;;;12.55;1.95;;;14.10;99.90;;;;;;5073318;28;21180;-35
2022/05/26 05:13:43;;;;;;;13.43;2.50;;;14.10;99.90;;;;;;5073348;28;20400;-35
2022/05/26 05:16:12;;;;;;;12.88;2.30;;;14.10;99.90;;;;;;5072133;28;20059;-35
2022/05/26 05:18:39;;;;;;;18.98;2.60;;;14.10;99.90;;;;;;5073712;28;20056;-35
2022/05/26 05:21:09;;;;;;;14.70;2.55;;;14.10;99.90;;;;;;5066969;28;20511;-35
2022/05/26 05:23:39;;;;;;;17.83;2.80;;;14.20;99.90;;;;;;5064508;28;20063;-35
2022/05/26 05:26:06;;;;;;;11.07;2.08;;;14.20;99.90;;;;;;5061102;28;20052;-35
2022/05/26 05:28:34;;;;;;;12.00;1.80;;;14.40;99.90;;;;;;5056821;28;20051;-35
2022/05/26 05:31:02;;;;;;;17.42;2.63;;;14.30;99.90;;;;;;5061054;28;20040;-36
2022/05/26 05:33:31;;;;;;;10.48;2.10;;;14.40;99.90;;;;;;5055009;28;20481;-36
2022/05/26 05:36:01;;;;;;;11.38;2.25;;;14.50;99.90;;;;;;5058475;28;20056;-36
2022/05/26 05:38:29;;;;;;;12.00;2.42;;;14.60;99.90;;;;;;5064160;28;20051;-36
2022/05/26 05:40:56;;;;;;;9.10;2.33;;;14.70;99.90;;;;;;5059151;28;20074;-35
2022/05/26 05:43:23;;;;;;;13.00;2.00;;;14.70;99.90;;;;;;5068848;28;20041;-35
2022/05/26 05:45:49;;;;;;;11.63;2.13;;;14.80;99.90;;;;;;5072499;28;20059;-35
2022/05/26 05:48:16;;;;;;;11.63;1.75;;;14.90;99.90;;;;;;5068746;28;20044;-36
2022/05/26 05:50:43;;;;;;;10.05;1.85;;;14.90;99.90;;;;;;5068356;28;20132;-36
2022/05/26 05:53:10;;;;;;;8.30;1.90;;;15.00;99.90;;;;;;5074810;28;20083;-36
2022/05/26 05:55:38;;;;;;;11.65;2.10;;;15.00;99.90;;;;;;5070824;28;20048;-35
2022/05/26 05:58:08;;;;;;;7.13;1.60;;;15.00;99.90;;;;;;5056697;28;20090;-35
2022/05/26 06:00:34;;;;;;;11.60;1.70;;;15.10;99.90;;;;;;5063133;28;20051;-35
2022/05/26 06:03:01;;;;;;;9.13;1.52;;;15.20;99.90;;;;;;5064968;28;20054;-35
2022/05/26 06:05:28;;;;;;;9.00;2.38;;;15.20;99.90;;;;;;5059003;28;20675;-36
2022/05/26 06:07:54;;;;;;;7.13;1.40;;;15.20;99.90;;;;;;5056589;28;20096;-36
2022/05/26 06:10:21;;;;;;;10.65;1.88;;;15.30;99.90;;;;;;5072987;28;20046;-35
2022/05/26 06:12:49;;;;;;;7.75;1.40;;;15.30;99.90;;;;;;5063403;28;20481;-35
2022/05/26 06:15:16;;;;;;;15.73;2.17;;;15.30;99.90;;;;;;5071591;28;20169;-36
2022/05/26 06:17:43;;;;;;;11.80;1.65;;;15.40;99.90;;;;;;5069479;28;20377;-35
2022/05/26 06:20:11;;;;;;;9.13;1.83;;;15.50;99.90;;;;;;5062484;28;20401;-35
2022/05/26 06:22:39;;;;;;;9.80;1.40;;;15.50;99.90;;;;;;5054258;28;20400;-35
2022/05/26 06:25:06;;;;;;;8.70;1.55;;;15.60;99.90;;;;;;5059286;28;20051;-35
2022/05/26 06:30:19;;;;;;;7.15;1.52;;;15.80;99.90;;;;;;5066585;28;20076;-35
2022/05/26 06:38:15;;;;;;;9.02;1.52;;;16.30;99.90;;;;;;5064926;28;20544;-35
2022/05/26 06:40:42;;;;;;;9.00;1.25;;;16.50;99.90;;;;;;5062194;28;20052;-35
2022/05/26 06:43:09;;;;;;;6.95;1.30;;;16.60;99.90;;;;;;5065994;28;20110;-35
2022/05/26 06:45:38;;;;;;;6.35;1.00;;;16.70;99.90;;;;;;5081276;28;20060;-35
2022/05/26 06:48:05;;;;;;;6.70;1.27;;;16.70;99.90;;;;;;5072071;28;20387;-35
2022/05/26 06:50:32;;;;;;;8.02;1.30;;;16.70;99.90;;;;;;5073269;28;20045;-35
2022/05/26 06:52:58;;;;;;;8.57;1.40;;;16.60;99.90;;;;;;5071769;28;20041;-35
2022/05/26 06:55:25;;;;;;;10.68;1.23;;;16.60;99.90;;;;;;5052915;28;20096;-34
2022/05/26 06:57:52;;;;;;;7.25;1.30;;;16.50;99.90;;;;;;5059001;28;20128;-35
2022/05/26 07:00:20;;;;;;;8.48;1.10;;;16.60;99.90;;;;;;5071461;28;20048;-35
2022/05/26 07:02:48;;;;;;;8.55;1.50;;;16.70;99.90;;;;;;5073156;28;20489;-35
2022/05/26 07:05:15;;;;;;;6.90;1.27;;;16.80;99.90;;;;;;5072861;28;20075;-35
2022/05/26 07:07:41;;;;;;;9.52;1.33;;;17.00;99.90;;;;;;5072061;28;20481;-35
2022/05/26 07:10:09;;;;;;;8.90;1.40;;;17.10;99.90;;;;;;5070285;28;20412;-35
2022/05/26 07:12:36;;;;;;;7.70;1.48;;;17.10;99.90;;;;;;5052780;28;20495;-35
2022/05/26 07:15:04;;;;;;;7.03;1.08;;;17.10;99.90;;;;;;5066427;28;20564;-35
2022/05/26 07:17:30;;;;;;;7.22;1.27;;;17.10;99.90;;;;;;5062401;28;20055;-36
2022/05/26 07:19:59;;;;;;;7.25;1.35;;;17.10;99.90;;;;;;5056714;28;20132;-35
2022/05/26 07:22:25;;;;;;;6.95;0.95;;;17.10;99.90;;;;;;5071318;28;20059;-35
2022/05/26 07:24:52;;;;;;;7.82;1.52;;;17.10;99.90;;;;;;5071561;28;20052;-36
2022/05/26 07:27:19;;;;;;;6.50;1.20;;;17.10;99.90;;;;;;5071724;28;20074;-36
2022/05/26 07:29:45;;;;;;;6.47;1.20;;;17.20;99.90;;;;;;5071438;28;20443;-36
2022/05/26 07:32:12;;;;;;;9.45;1.65;;;17.30;99.90;;;;;;5072526;28;20051;-36
2022/05/26 07:34:39;;;;;;;6.65;1.10;;;17.50;99.90;;;;;;5071513;28;20052;-36
2022/05/26 07:42:33;;;;;;;7.97;1.60;;;17.60;99.50;;;;;;5059214;28;20498;-35
2022/05/26 07:45:00;;;;;;;6.30;1.33;;;17.60;99.20;;;;;;5067865;28;20045;-35
2022/05/26 07:47:27;;;;;;;9.60;1.45;;;17.70;99.20;;;;;;5071106;28;20094;-35
2022/05/26 07:49:54;;;;;;;7.43;1.52;;;17.80;98.70;;;;;;5072026;28;20055;-36
2022/05/26 07:52:22;;;;;;;6.63;1.38;;;17.90;98.60;;;;;;5071958;28;20041;-36
2022/05/26 07:54:49;;;;;;;8.02;1.48;;;18.00;97.90;;;;;;5071142;28;20044;-36
2022/05/26 07:57:20;;;;;;;4.72;1.00;;;18.10;97.80;;;;;;5070545;28;20052;-36
2022/05/26 07:59:46;;;;;;;9.07;1.92;;;18.10;97.30;;;;;;5072020;28;20051;-36
2022/05/26 08:02:13;;;;;;;7.10;1.05;;;18.20;97.70;;;;;;5070682;28;20041;-36
2022/05/26 08:04:40;;;;;;;8.35;1.48;;;18.20;97.40;;;;;;5070343;28;20056;-36
2022/05/26 08:07:07;;;;;;;5.97;1.30;;;18.30;97.10;;;;;;5069790;28;20476;-36
2022/05/26 08:09:37;;;;;;;5.43;1.02;;;18.40;97.00;;;;;;5069998;28;20340;-36
2022/05/26 08:12:05;;;;;;;5.73;1.13;;;18.50;96.30;;;;;;5072025;28;20083;-36
2022/05/26 08:14:32;;;;;;;8.75;1.30;;;18.50;96.10;;;;;;5069465;28;20279;-36
2022/05/26 08:16:58;;;;;;;6.05;1.30;;;18.60;96.30;;;;;;5072302;28;20052;-36
2022/05/26 08:19:25;;;;;;;6.07;0.93;;;18.60;96.20;;;;;;5059444;28;20102;-36
2022/05/26 08:21:52;;;;;;;8.05;1.10;;;18.70;95.60;;;;;;5052110;28;20052;-36
2022/05/26 08:24:19;;;;;;;4.82;1.30;;;18.70;95.40;;;;;;5066234;28;20139;-36
2022/05/26 08:26:48;;;;;;;3.38;0.90;;;18.80;95.50;;;;;;5072346;28;20048;-36
2022/05/26 08:29:14;;;;;;;5.70;1.00;;;19.00;95.40;;;;;;5072101;28;20049;-36
2022/05/26 08:31:41;;;;;;;8.05;0.95;;;19.10;94.70;;;;;;5069489;28;20489;-36
2022/05/26 08:34:08;;;;;;;5.15;0.70;;;19.10;95.00;;;;;;5071479;28;20127;-36
2022/05/26 08:36:35;;;;;;;9.43;1.38;;;19.20;94.30;;;;;;5071468;28;20131;-36
2022/05/26 08:39:02;;;;;;;6.22;1.42;;;19.20;93.70;;;;;;5072714;28;20057;-36
2022/05/26 08:41:31;;;;;;;7.18;1.00;;;19.30;93.70;;;;;;5074721;28;20063;-36
2022/05/26 08:44:01;;;;;;;10.95;1.65;;;19.40;93.80;;;;;;5074981;28;20136;-36
2022/05/26 08:46:32;;;;;;;4.28;1.00;;;19.60;94.00;;;;;;5075488;28;20048;-36
2022/05/26 08:49:01;;;;;;;5.45;1.55;;;19.70;92.40;;;;;;5075468;28;20045;-36
2022/05/26 08:51:35;;;;;;;6.15;1.05;;;19.80;91.90;;;;;;5073923;28;20066;-36
2022/05/26 08:54:02;;;;;;;4.43;1.30;;;19.70;90.70;;;;;;5065123;28;20052;-36
2022/05/26 08:56:28;;;;;;;5.60;1.10;;;19.50;90.60;;;;;;5075060;28;20493;-36
2022/05/26 08:59:01;;;;;;;5.05;1.25;;;19.50;91.00;;;;;;5074043;28;20499;-36
2022/05/26 09:01:32;;;;;;;6.10;1.08;;;19.70;91.80;;;;;;5074901;28;20114;-37
2022/05/26 09:03:59;;;;;;;3.85;1.15;;;19.80;90.50;;;;;;5073951;28;20094;-37
2022/05/26 09:06:26;;;;;;;5.07;1.20;;;19.90;90.50;;;;;;5073453;28;20485;-37
2022/05/26 09:14:26;;;;;;;4.20;0.98;;;20.10;89.70;;;;;;5074952;28;20048;-37
2022/05/26 09:16:57;;;;;;;5.57;0.63;;;20.10;88.00;;;;;;5074770;28;20076;-37
2022/05/26 09:19:24;;;;;;;3.38;0.70;;;20.00;87.60;;;;;;5067996;28;20060;-36
2022/05/26 09:21:51;;;;;;;4.38;1.00;;;19.90;88.30;;;;;;5073910;28;20041;-37
2022/05/26 09:24:22;;;;;;;4.53;1.00;;;19.90;88.00;;;;;;5074439;28;20530;-37
2022/05/26 09:26:52;;;;;;;6.80;1.20;;;19.90;88.70;;;;;;5069179;28;20088;-36
2022/05/26 09:29:20;;;;;;;4.88;1.00;;;20.10;88.70;;;;;;5074184;28;20102;-37
2022/05/26 09:31:49;;;;;;;6.95;0.93;;;20.20;88.10;;;;;;5073489;28;20140;-37
2022/05/26 09:34:18;;;;;;;3.33;0.90;;;20.30;88.80;;;;;;5074993;28;20485;-37
2022/05/26 09:36:48;;;;;;;3.65;0.85;;;20.30;88.30;;;;;;5074227;28;20054;-36
2022/05/26 09:39:15;;;;;;;5.80;0.88;;;20.40;88.60;;;;;;5073443;28;20040;-37
2022/05/26 09:41:43;;;;;;;8.90;1.00;;;20.50;88.40;;;;;;5073532;28;20067;-37
2022/05/26 09:44:23;;;;;;;6.35;0.82;;;20.60;88.10;;;;;;5073205;28;20057;-36
2022/05/26 09:46:52;;;;;;;6.32;1.02;;;21.00;89.00;;;;;;5074191;28;20052;-37
2022/05/26 09:49:21;;;;;;;4.82;0.80;;;21.10;85.10;;;;;;5072433;28;20044;-35
2022/05/26 09:51:49;;;;;;;7.25;0.95;;;21.30;83.30;;;;;;5073754;28;20052;-37
2022/05/26 09:54:25;;;;;;;4.20;0.82;;;21.50;81.30;;;;;;5073828;28;20066;-37
2022/05/26 09:56:52;;;;;;;3.47;0.77;;;21.50;80.30;;;;;;5074275;28;20049;-37
2022/05/26 09:59:27;;;;;;;4.32;0.85;;;21.40;79.60;;;;;;5072998;28;20045;-37
2022/05/26 10:01:58;;;;;;;3.70;1.00;;;21.50;80.90;;;;;;5063818;28;20174;-37
2022/05/26 10:04:27;;;;;;;;;;;21.60;80.50;;;;;;5074424;28;20059;-36
2022/05/26 10:06:58;;;;;;;6.00;1.40;;;21.50;79.80;;;;;;5070646;28;19927;-37
2022/05/26 10:09:29;;;;;;;3.70;0.73;;;21.40;80.70;;;;;;5071897;28;20055;-36
2022/05/26 10:12:01;;;;;;;5.50;1.20;;;21.30;79.20;;;;;;5074091;28;20043;-37
2022/05/26 10:14:50;;;;;;;3.30;0.95;;;21.10;78.70;;;;;;5073669;28;20063;-37
2022/05/26 10:17:25;;;;;;;8.40;1.10;;;21.00;79.50;;;;;;5072820;28;20119;-34
2022/05/26 10:20:00;;;;;;;4.05;0.95;;;20.90;80.80;;;;;;5072993;28;20136;-37
2022/05/26 10:22:34;;;;;;;4.97;1.00;;;21.00;80.00;;;;;;5073918;28;20570;-36
2022/05/26 10:25:21;;;;;;;4.25;1.15;;;20.90;80.10;;;;;;5072605;28;20473;-36
2022/05/26 10:27:52;;;;;;;7.00;0.80;;;20.90;80.80;;;;;;5071843;28;20139;-36
2022/05/26 10:30:23;;;;;;;4.57;1.30;;;20.80;80.90;;;;;;5074133;28;20131;-36
2022/05/26 10:32:53;;;;;;;;;;;20.90;82.10;;;;;;5074324;28;20052;-36
2022/05/26 10:35:23;;;;;;;3.40;1.23;;;20.90;82.00;;;;;;5068736;28;19927;-36
2022/05/26 10:38:03;;;;;;;8.13;1.42;;;20.80;82.90;;;;;;5073644;28;20055;-36
2022/05/26 10:40:36;;;;;;;6.25;1.30;;;20.80;83.20;;;;;;5074153;28;20091;-35
2022/05/26 10:43:05;;;;;;;4.38;1.05;;;20.80;82.80;;;;;;5073737;28;20127;-37
2022/05/26 10:45:34;;;;;;;4.82;0.90;;;20.80;82.20;;;;;;5073797;28;20087;-37
2022/05/26 10:48:08;;;;;;;4.13;1.15;;;20.70;82.70;;;;;;5073020;28;20484;-36
2022/05/26 10:50:37;;;;;;;4.05;1.02;;;20.60;83.70;;;;;;5073345;28;20055;-37
2022/05/26 10:53:09;;;;;;;7.68;1.20;;;20.50;83.90;;;;;;5071263;28;20412;-37
2022/05/26 10:55:39;;;;;;;7.10;1.63;;;20.50;85.40;;;;;;5070058;28;20067;-36
2022/05/26 10:58:09;;;;;;;7.53;1.20;;;20.40;85.40;;;;;;5065799;28;20044;-37
2022/05/26 11:00:36;;;;;;;5.25;1.00;;;20.30;86.20;;;;;;5070397;28;20114;-35
2022/05/26 11:03:08;;;;;;;4.25;1.10;;;20.40;87.30;;;;;;5069966;28;20392;-36
2022/05/26 11:05:38;;;;;;;7.18;1.30;;;20.50;86.90;;;;;;5072287;28;20052;-35
2022/05/26 11:08:14;;;;;;;9.20;1.45;;;20.80;86.70;;;;;;5071052;28;20098;-36
2022/05/26 11:10:46;;;;;;;11.75;5.05;;;20.90;86.10;;;;;;5065443;28;20056;-35
2022/05/26 11:13:15;;;;;;;8.07;1.88;;;20.90;86.20;;;;;;5069453;28;20044;-36
2022/05/26 11:18:31;;;;;;;6.18;1.52;;;21.00;87.40;;;;;;5069242;28;20048;-35
2022/05/26 11:20:58;;;;;;;4.95;1.00;;;21.20;86.80;;;;;;5067188;28;20064;-36
2022/05/26 11:23:26;;;;;;;8.43;1.38;;;21.10;84.70;;;;;;5072948;28;20396;-36
2022/05/26 11:25:57;;;;;;;6.78;1.45;;;21.00;84.10;;;;;;5072191;28;20481;-36
2022/05/26 11:28:29;;;;;;;3.67;1.13;;;20.90;83.00;;;;;;5072708;28;20088;-36
2022/05/26 11:36:41;;;;;;;5.93;1.60;;;20.70;82.80;;;;;;5052732;28;20057;-35
2022/05/26 11:39:08;;;;;;;5.82;1.73;;;20.60;83.30;;;;;;5052747;28;20048;-36
2022/05/26 11:41:36;;;;;;;6.80;1.50;;;20.50;83.30;;;;;;5071363;28;20050;-36
2022/05/26 11:44:04;;;;;;;15.48;2.03;;;20.50;83.50;;;;;;5073018;28;20053;-36
2022/05/26 11:46:49;;;;;;;4.95;1.42;;;20.60;84.20;;;;;;5072602;28;20055;-36
2022/05/26 11:49:49;;;;;;;5.30;1.42;;;20.70;83.30;;;;;;5072302;28;20040;-36
2022/05/26 11:52:25;;;;;;;5.65;1.33;;;20.80;83.70;;;;;;5071249;28;20048;-36
2022/05/26 11:55:08;;;;;;;6.93;1.45;;;20.80;83.90;;;;;;5072429;28;20053;-37
2022/05/26 11:57:35;;;;;;;6.90;1.77;;;20.70;83.80;;;;;;5071175;28;20048;-36
2022/05/26 12:00:19;;;;;;;8.10;1.40;;;20.70;83.40;;;;;;5071373;28;20082;-37
2022/05/26 12:02:46;;;;;;;5.20;1.55;;;20.70;83.40;;;;;;5071614;28;20461;-37
2022/05/26 12:05:44;;;;;;;4.13;1.20;;;20.90;83.50;;;;;;5072573;28;20131;-36
2022/05/26 12:08:28;;;;;;;8.93;1.38;;;21.10;82.70;;;;;;5071170;28;20056;-36
2022/05/26 12:10:56;;;;;;;5.80;1.58;;;21.30;83.20;;;;;;5071784;28;20476;-37
2022/05/26 12:13:34;;;;;;;6.28;1.60;;;21.50;81.90;;;;;;5073634;28;20052;-36
2022/05/26 12:16:20;;;;;;;6.03;1.55;;;21.60;82.00;;;;;;5076970;28;20052;-36
2022/05/26 12:18:48;;;;;;;8.98;1.38;;;21.70;80.10;;;;;;5074481;28;20124;-36
2022/05/26 12:21:16;;;;;;;5.85;1.40;;;21.70;79.80;;;;;;5076667;28;20074;-35
2022/05/26 12:23:44;;;;;;;8.80;1.92;;;21.70;80.00;;;;;;5075117;28;20071;-34
2022/05/26 12:26:28;;;;;;;7.95;1.70;;;21.70;80.10;;;;;;5076157;28;20139;-35
2022/05/26 12:28:56;;;;;;;8.80;1.20;;;21.70;80.20;;;;;;5075185;28;20049;-37
2022/05/26 12:31:25;;;;;;;7.00;1.30;;;21.60;79.40;;;;;;5076231;28;20131;-37
2022/05/26 12:34:30;;;;;;;9.45;1.60;;;21.50;78.80;;;;;;5075994;28;20070;-37
2022/05/26 12:36:59;;;;;;;5.53;1.20;;;21.50;78.20;;;;;;5076390;28;20049;-36
2022/05/26 12:39:59;;;;;;;6.05;1.80;;;21.50;78.60;;;;;;5076054;28;20088;-36
2022/05/26 12:42:36;;;;;;;7.85;1.48;;;21.50;77.90;;;;;;5038689;28;20041;-36
2022/05/26 12:45:13;;;;;;;8.50;1.65;;;21.50;79.40;;;;;;5055127;28;20051;-36
2022/05/26 12:47:47;;;;;;;11.20;1.45;;;21.50;80.10;;;;;;5064956;28;20048;-37
2022/05/26 12:50:16;;;;;;;6.97;1.70;;;21.50;79.70;;;;;;5075683;28;20049;-37
2022/05/26 12:52:44;;;;;;;10.18;2.17;;;21.40;80.10;;;;;;5074701;28;20049;-37
2022/05/26 12:55:19;;;;;;;10.40;1.92;;;21.30;80.00;;;;;;5075597;28;20052;-35
2022/05/26 12:57:55;;;;;;;12.82;3.10;;;21.20;80.50;;;;;;5074426;28;20485;-35
2022/05/26 13:00:27;;;;;;;10.95;2.10;;;21.30;81.70;;;;;;5075718;28;20056;-36
2022/05/26 13:02:55;;;;;;;8.30;1.73;;;21.50;81.30;;;;;;5075550;28;20056;-36
2022/05/26 13:05:22;;;;;;;5.75;1.60;;;21.60;81.50;;;;;;5075387;28;20063;-36
2022/05/26 13:07:50;;;;;;;5.70;1.23;;;21.70;79.60;;;;;;5074751;28;20051;-36
2022/05/26 13:10:17;;;;;;;7.80;1.90;;;21.70;79.10;;;;;;5075475;28;20080;-36
2022/05/26 13:12:46;;;;;;;9.93;1.95;;;21.70;79.20;;;;;;5075427;28;20497;-36
2022/05/26 13:15:15;;;;;;;8.77;2.10;;;21.70;78.70;;;;;;5059421;28;20183;-36
2022/05/26 13:17:46;;;;;;;5.90;1.40;;;21.80;79.00;;;;;;5062341;28;20060;-36
2022/05/26 13:20:21;;;;;;;;;;;21.80;78.80;;;;;;5076074;28;20056;-35
2022/05/26 13:22:47;;;;;;;12.20;2.15;;;21.90;79.90;;;;;;5074988;28;20384;-36
2022/05/26 13:25:15;;;;;;;9.73;2.60;;;21.80;79.50;;;;;;5074206;28;20055;-36
2022/05/26 13:27:45;;;;;;;8.95;2.10;;;21.80;79.60;;;;;;5074146;28;20052;-36
2022/05/26 13:33:08;;;;;;;4.95;1.13;;;21.70;79.00;;;;;;5075290;28;20408;-36